< < Back
Terminal Aerodrome Forecast


Current Version              Previous Versions:   1  2  3  4  5  6  7  8  9  

Terminal Aerodrome Forecast

654
FTUS42 KCHS 302202 AAB
TAFCHS
TAF AMD
KCHS 302202Z 3022/0118 20012G18KT P6SM VCTS SCT035CB BKN060
      TEMPO 3022/3024 VRB15G25KT 3SM TSRA BKN035CB
     FM010100 24006KT P6SM FEW040 BKN150
     FM011400 26010KT P6SM SCT040=



Latest METAR

728
SAUS80 KWBC 010400 RRK
MTRCHS
METAR KCHS 010356Z 23005KT 10SM FEW180 22/21 A3000 RMK AO2 SLP159
T02220206


USA.gov is the U.S. government's official web portal to all federal, state and local government web resources and services.